Time;durP1;ratioP1;P1;durP2;ratioP2;P2;SDS_P1;SDS_P2;PMS_P1;PMS_P2;Temp;Humidity;BMP_temperature;BMP_pressure;BME280_temperature;BME280_humidity;BME280_pressure;Samples;Min_cycle;Max_cycle;Signal;HPM_P1;HPM_P2
2021/05/12 00:00:48;;;;;;;11.97;9.67;;;;;;;13.50;78.79;99833.75;5035192;28;20207;-72
2021/05/12 00:03:13;;;;;;;14.87;10.00;;;;;;;13.55;78.85;99828.03;5035211;28;20540;-74
2021/05/12 00:05:38;;;;;;;13.27;9.03;;;;;;;13.57;79.18;99815.34;5034071;28;20174;-74
2021/05/12 00:08:04;;;;;;;15.70;9.87;;;;;;;13.67;79.33;99818.97;5033716;28;20207;-72
2021/05/12 00:10:29;;;;;;;12.90;8.77;;;;;;;13.76;79.51;99839.69;5034097;28;20180;-73
2021/05/12 00:12:54;;;;;;;12.10;8.80;;;;;;;13.64;80.31;99833.50;5017994;28;20311;-72
2021/05/12 00:15:22;;;;;;;13.27;9.13;;;;;;;13.43;81.50;99833.41;5036124;28;20645;-72
2021/05/12 00:17:50;;;;;;;11.33;9.70;;;;;;;13.26;82.45;99841.94;5033995;28;20216;-72
2021/05/12 00:20:21;;;;;;;16.80;10.63;;;;;;;13.20;82.80;99836.22;5034107;28;20164;-73
2021/05/12 00:22:52;;;;;;;12.57;9.83;;;;;;;13.09;84.29;99826.31;5017946;28;20636;-73
2021/05/12 00:25:18;;;;;;;13.40;10.00;;;;;;;13.02;84.80;99825.09;5033925;28;20167;-73
2021/05/12 00:27:43;;;;;;;12.77;10.80;;;;;;;13.02;84.94;99817.06;5035162;28;20552;-73
2021/05/12 00:30:12;;;;;;;14.27;10.40;;;;;;;13.03;85.46;99811.59;5017038;28;20179;-72
2021/05/12 00:32:37;;;;;;;14.47;12.40;;;;;;;13.10;86.93;99823.53;5033642;28;20203;-72
2021/05/12 00:35:04;;;;;;;16.13;12.30;;;;;;;12.97;88.02;99817.41;5034818;28;20172;-73
2021/05/12 00:37:30;;;;;;;17.80;14.20;;;;;;;12.92;89.99;99830.31;5033364;28;20207;-73
2021/05/12 00:39:55;;;;;;;18.73;13.87;;;;;;;12.80;91.89;99826.78;5033508;28;20235;-72
2021/05/12 00:42:20;;;;;;;20.77;14.90;;;;;;;12.66;93.25;99824.34;5034836;28;20575;-72
2021/05/12 00:44:45;;;;;;;21.33;16.53;;;;;;;12.64;95.06;99820.91;5033374;28;20168;-73
2021/05/12 00:47:11;;;;;;;18.73;15.40;;;;;;;12.60;95.64;99821.25;5033243;28;20192;-72
2021/05/12 00:49:36;;;;;;;17.63;15.37;;;;;;;12.57;96.11;99816.13;5033192;28;20184;-72
2021/05/12 00:52:03;;;;;;;20.03;16.17;;;;;;;12.45;97.03;99809.91;5034587;28;20182;-72
2021/05/12 00:54:28;;;;;;;18.33;15.13;;;;;;;12.44;98.02;99809.06;5016592;28;20195;-71
2021/05/12 00:56:54;;;;;;;18.13;14.63;;;;;;;12.43;99.13;99819.88;5033647;28;20191;-72
2021/05/12 00:59:21;;;;;;;19.17;15.33;;;;;;;12.42;99.50;99802.13;5033576;28;20173;-73
2021/05/12 01:01:46;;;;;;;17.83;14.30;;;;;;;12.41;100.00;99805.75;5033424;28;20172;-72
2021/05/12 01:04:11;;;;;;;16.27;13.67;;;;;;;12.45;100.00;99796.53;5033829;28;20172;-72
2021/05/12 01:06:38;;;;;;;17.47;14.20;;;;;;;12.40;100.00;99798.72;5034095;28;20544;-71
2021/05/12 01:09:05;;;;;;;19.73;13.73;;;;;;;12.41;100.00;99797.75;5032883;28;20231;-71
2021/05/12 01:11:31;;;;;;;19.80;15.00;;;;;;;12.36;100.00;99787.38;5033210;28;20175;-72
2021/05/12 01:13:56;;;;;;;17.10;13.67;;;;;;;12.35;100.00;99796.38;5032978;28;20200;-72
2021/05/12 01:16:22;;;;;;;16.20;13.07;;;;;;;12.34;100.00;99799.19;5032782;28;20253;-72
2021/05/12 01:18:48;;;;;;;15.13;12.13;;;;;;;12.35;100.00;99811.59;5033193;28;20555;-72
2021/05/12 01:21:13;;;;;;;19.97;13.83;;;;;;;12.38;100.00;99830.09;5033879;28;20172;-72
2021/05/12 01:23:43;;;;;;;17.00;12.53;;;;;;;12.39;100.00;99839.81;5016296;28;20544;-73
2021/05/12 01:26:10;;;;;;;14.50;11.03;;;;;;;12.37;100.00;99836.41;5016309;28;20179;-72
2021/05/12 01:28:38;;;;;;;9.50;8.53;;;;;;;12.37;100.00;99833.72;5032573;28;20207;-71
2021/05/12 01:31:06;;;;;;;12.27;8.53;;;;;;;12.32;100.00;99833.22;5033664;28;20176;-71
2021/05/12 01:33:32;;;;;;;12.13;7.80;;;;;;;12.28;100.00;99839.78;5032884;28;20192;-72
2021/05/12 01:35:58;;;;;;;10.10;8.07;;;;;;;12.26;100.00;99839.03;5032311;28;20174;-72
2021/05/12 01:38:24;;;;;;;8.27;6.67;;;;;;;12.23;100.00;99837.44;5033389;28;20283;-72
2021/05/12 01:40:50;;;;;;;7.40;6.23;;;;;;;12.17;100.00;99846.78;5032516;28;20536;-73
2021/05/12 01:43:15;;;;;;;7.00;5.80;;;;;;;12.14;100.00;99855.03;5032573;28;20171;-72
2021/05/12 01:45:41;;;;;;;7.63;6.83;;;;;;;12.19;100.00;99842.16;5032177;28;20172;-72
2021/05/12 01:48:07;;;;;;;9.20;6.17;;;;;;;12.14;100.00;99836.31;5032311;28;20242;-72
2021/05/12 01:50:33;;;;;;;8.60;6.03;;;;;;;12.05;100.00;99847.69;5032346;28;20180;-72
2021/05/12 01:52:58;;;;;;;9.30;6.47;;;;;;;12.03;100.00;99851.47;5031958;28;20203;-73
2021/05/12 01:55:23;;;;;;;8.57;6.57;;;;;;;12.00;100.00;99859.72;5033484;28;20552;-72
2021/05/12 01:57:49;;;;;;;8.40;6.83;;;;;;;12.00;100.00;99860.56;5032449;28;20192;-72
2021/05/12 02:00:18;;;;;;;10.27;7.50;;;;;;;11.97;100.00;99870.66;5031883;28;20548;-72
2021/05/12 02:02:44;;;;;;;10.93;7.90;;;;;;;11.98;100.00;99888.41;5031884;28;20518;-72
2021/05/12 02:05:09;;;;;;;9.07;7.90;;;;;;;11.92;100.00;99889.69;5032319;28;20187;-72
2021/05/12 02:07:34;;;;;;;9.80;8.80;;;;;;;11.93;100.00;99899.44;5031863;28;20196;-73
2021/05/12 02:09:59;;;;;;;11.70;9.43;;;;;;;11.81;100.00;99894.94;5033426;28;20541;-72
2021/05/12 02:12:25;;;;;;;12.03;9.93;;;;;;;11.78;100.00;99896.03;5033275;28;20207;-72
2021/05/12 02:14:50;;;;;;;13.37;9.73;;;;;;;11.79;100.00;99897.75;5033346;28;20180;-72
2021/05/12 02:17:15;;;;;;;10.50;9.40;;;;;;;11.81;100.00;99894.94;5031653;28;20189;-72
2021/05/12 02:19:41;;;;;;;10.30;9.23;;;;;;;11.85;100.00;99891.09;5032154;28;20180;-72
2021/05/12 02:22:06;;;;;;;12.63;11.33;;;;;;;11.76;100.00;99892.59;5015208;28;20648;-72
2021/05/12 02:24:31;;;;;;;14.70;10.33;;;;;;;11.79;100.00;99894.22;5015517;28;20176;-72
2021/05/12 02:26:56;;;;;;;12.20;10.97;;;;;;;11.78;100.00;99904.06;5031767;28;20180;-72
2021/05/12 02:29:22;;;;;;;18.10;12.60;;;;;;;11.77;100.00;99917.50;5032122;28;20186;-72
2021/05/12 02:31:47;;;;;;;15.00;11.63;;;;;;;11.81;100.00;99925.22;5032074;28;20188;-72
2021/05/12 02:34:12;;;;;;;16.97;12.13;;;;;;;11.69;100.00;99915.38;5032036;28;20200;-72
2021/05/12 02:36:38;;;;;;;15.47;12.37;;;;;;;11.68;100.00;99919.03;5033866;28;20670;-72
2021/05/12 02:39:03;;;;;;;17.97;13.90;;;;;;;11.69;100.00;99909.19;5031589;28;20226;-72
2021/05/12 02:41:29;;;;;;;16.47;13.47;;;;;;;11.63;100.00;99909.63;5031566;28;20176;-72
2021/05/12 02:43:54;;;;;;;19.57;13.90;;;;;;;11.61;100.00;99908.88;5032754;28;20168;-72
2021/05/12 02:46:19;;;;;;;20.90;15.20;;;;;;;11.62;100.00;99907.94;5032926;28;20640;-72
2021/05/12 02:48:44;;;;;;;17.40;14.03;;;;;;;11.52;99.02;99908.59;5031893;28;20188;-73
2021/05/12 02:51:10;;;;;;;21.93;15.43;;;;;;;11.55;99.82;99919.06;5031626;28;20222;-73
2021/05/12 02:53:35;;;;;;;21.27;15.83;;;;;;;11.41;100.00;99918.31;5031628;28;20278;-72
2021/05/12 02:56:00;;;;;;;21.17;16.00;;;;;;;11.38;100.00;99927.41;5032519;28;20188;-73
2021/05/12 02:58:26;;;;;;;23.10;15.50;;;;;;;11.40;100.00;99925.47;5032539;28;20196;-73
2021/05/12 03:00:51;;;;;;;17.50;14.80;;;;;;;11.41;100.00;99937.88;5031546;28;20248;-72
2021/05/12 03:03:16;;;;;;;21.53;16.70;;;;;;;11.43;100.00;99927.91;5031748;28;20260;-73
2021/05/12 03:05:42;;;;;;;22.80;15.57;;;;;;;11.43;100.00;99935.09;5031248;28;20195;-73
2021/05/12 03:08:08;;;;;;;18.77;14.37;;;;;;;11.37;100.00;99940.88;5032952;28;20204;-72
2021/05/12 03:10:36;;;;;;;21.07;15.23;;;;;;;11.41;100.00;99920.97;5031603;28;20705;-73
2021/05/12 03:13:04;;;;;;;19.47;14.97;;;;;;;11.43;99.91;99925.25;5031532;28;20203;-72
2021/05/12 03:15:30;;;;;;;19.23;14.37;;;;;;;11.46;98.91;99929.53;5031586;28;20560;-72
2021/05/12 03:17:56;;;;;;;15.50;13.20;;;;;;;11.52;99.09;99932.63;5032824;28;20188;-73
2021/05/12 03:20:23;;;;;;;15.87;13.60;;;;;;;11.57;98.00;99943.84;5031450;28;20176;-72
2021/05/12 03:22:48;;;;;;;18.17;13.60;;;;;;;11.66;97.15;99941.47;5031428;28;20191;-72
2021/05/12 03:25:15;;;;;;;15.70;12.60;;;;;;;11.68;96.21;99945.75;5032956;28;20652;-72
2021/05/12 03:27:40;;;;;;;12.93;11.63;;;;;;;11.74;94.76;99942.63;5032715;28;20199;-72
2021/05/12 03:30:08;;;;;;;13.20;10.90;;;;;;;11.71;94.32;99953.56;5035284;28;20220;-74
2021/05/12 03:32:34;;;;;;;14.43;12.10;;;;;;;11.73;94.56;99953.44;5032685;28;20177;-72
2021/05/12 03:34:59;;;;;;;13.90;12.17;;;;;;;11.75;95.01;99951.50;5034716;28;20172;-72
2021/05/12 03:37:24;;;;;;;13.87;11.83;;;;;;;11.72;95.13;99943.72;5059672;22;20664;-73
2021/05/12 03:39:50;;;;;;;16.70;12.60;;;;;;;11.76;94.42;99950.53;5035925;28;20560;-75
2021/05/12 03:42:15;;;;;;;13.00;11.70;;;;;;;11.71;94.49;99939.34;5035655;28;20242;-74
2021/05/12 03:44:40;;;;;;;13.50;11.53;;;;;;;11.73;94.31;99945.41;5018000;28;20251;-74
2021/05/12 03:47:06;;;;;;;14.63;13.03;;;;;;;11.76;93.60;99953.22;5034487;28;20547;-75
2021/05/12 03:49:31;;;;;;;18.93;13.63;;;;;;;11.78;93.52;99954.00;5034474;28;20196;-74
2021/05/12 03:51:56;;;;;;;17.77;14.00;;;;;;;11.68;93.64;99952.91;5035580;28;20180;-75
2021/05/12 03:54:22;;;;;;;17.53;13.13;;;;;;;11.67;93.62;99964.56;5035543;28;20188;-73
2021/05/12 03:56:48;;;;;;;17.33;14.43;;;;;;;11.65;94.47;99972.69;5018118;28;20188;-73
2021/05/12 03:59:13;;;;;;;17.13;13.27;;;;;;;11.68;94.01;99979.66;5035583;28;20231;-73
2021/05/12 04:01:38;;;;;;;15.63;13.47;;;;;;;11.59;93.24;99981.16;5017948;28;20184;-74
2021/05/12 04:04:07;;;;;;;17.83;12.80;;;;;;;11.59;92.98;99984.69;5034475;28;20201;-74
2021/05/12 04:06:32;;;;;;;14.57;12.47;;;;;;;11.48;92.46;99979.22;5033959;28;20168;-75
2021/05/12 04:08:57;;;;;;;18.40;14.90;;;;;;;11.54;92.27;99976.16;5033998;28;20219;-74
2021/05/12 04:11:23;;;;;;;16.77;14.17;;;;;;;11.50;92.08;99990.66;5035662;28;20226;-74
2021/05/12 04:13:48;;;;;;;11.80;10.60;;;;;;;11.48;91.80;99981.88;5033821;28;20195;-74
2021/05/12 04:16:13;;;;;;;12.93;10.73;;;;;;;11.53;91.46;99974.44;5020406;28;20200;-74
2021/05/12 04:18:39;;;;;;;12.80;10.47;;;;;;;11.43;92.13;99968.00;5035668;28;20196;-73
2021/05/12 04:21:04;;;;;;;17.40;11.73;;;;;;;11.49;92.10;99970.25;5035169;28;20173;-73
2021/05/12 04:23:29;;;;;;;17.70;12.30;;;;;;;11.51;92.34;99970.97;5017164;28;20208;-74
2021/05/12 04:25:55;;;;;;;13.77;11.03;;;;;;;11.54;90.90;99975.28;5033586;28;20226;-74
2021/05/12 04:28:20;;;;;;;13.47;11.97;;;;;;;11.50;91.85;99969.28;5035223;28;20188;-74
2021/05/12 04:30:45;;;;;;;14.00;12.40;;;;;;;11.47;91.70;99985.53;5033468;28;20183;-74
2021/05/12 04:33:11;;;;;;;13.70;11.37;;;;;;;11.48;91.10;99989.06;5034413;28;20212;-74
2021/05/12 04:35:36;;;;;;;15.07;12.60;;;;;;;11.53;90.90;99990.47;5033570;28;20176;-75
2021/05/12 04:38:01;;;;;;;13.70;12.30;;;;;;;11.44;90.96;99995.56;5034560;28;20208;-74
2021/05/12 04:40:27;;;;;;;13.40;11.40;;;;;;;11.40;91.55;99994.09;5034927;28;20156;-74
2021/05/12 04:42:52;;;;;;;18.27;11.87;;;;;;;11.34;89.69;99995.38;5034712;28;20176;-74
2021/05/12 04:45:18;;;;;;;17.13;14.10;;;;;;;11.34;91.18;100002.53;5033622;28;20547;-76
2021/05/12 04:47:57;;;;;;;14.83;12.60;;;;;;;11.44;90.15;100000.91;5035706;28;20751;-74
2021/05/12 04:50:31;;;;;;;16.00;13.67;;;;;;;11.48;89.94;100007.75;5034012;28;20157;-74
2021/05/12 04:52:56;;;;;;;21.10;14.53;;;;;;;11.46;89.58;100010.53;5017397;28;20196;-75
2021/05/12 04:55:22;;;;;;;13.63;12.17;;;;;;;11.47;89.37;100004.22;5033180;28;20177;-74
2021/05/12 04:57:47;;;;;;;17.67;12.73;;;;;;;11.48;89.73;100007.75;5034197;28;20196;-74
2021/05/12 05:00:14;;;;;;;12.63;10.87;;;;;;;11.54;89.53;100008.22;5034207;28;20571;-74
2021/05/12 05:02:40;;;;;;;12.90;11.57;;;;;;;11.55;89.01;100014.41;5016458;28;20183;-74
2021/05/12 05:05:10;;;;;;;16.87;13.03;;;;;;;11.56;89.61;100016.97;5016633;28;20176;-74
2021/05/12 05:07:36;;;;;;;13.90;10.57;;;;;;;11.64;87.96;100021.78;5032850;28;20579;-73
2021/05/12 05:10:02;;;;;;;15.10;11.73;;;;;;;11.64;87.45;100019.09;5016413;28;20257;-73
2021/05/12 05:12:28;;;;;;;13.00;10.33;;;;;;;11.69;86.73;100026.78;5033107;28;20255;-72
2021/05/12 05:14:53;;;;;;;11.93;9.47;;;;;;;11.63;86.84;100017.41;5033912;28;20676;-73
2021/05/12 05:17:19;;;;;;;11.83;9.47;;;;;;;11.56;87.36;100029.47;5016285;28;20195;-69
2021/05/12 05:19:44;;;;;;;13.57;10.93;;;;;;;11.55;86.36;100025.97;5034119;28;20168;-69
2021/05/12 05:22:11;;;;;;;12.60;10.03;;;;;;;11.58;86.29;100032.91;5035798;28;20188;-69
2021/05/12 05:24:38;;;;;;;14.23;11.17;;;;;;;11.58;86.04;100031.09;5032656;28;20160;-68
2021/05/12 05:27:04;;;;;;;16.53;12.37;;;;;;;11.57;86.44;100031.19;5033031;28;20202;-68
2021/05/12 05:29:29;;;;;;;21.63;16.87;;;;;;;11.55;86.90;100036.66;5015911;28;20287;-68
2021/05/12 05:31:54;;;;;;;17.53;13.53;;;;;;;11.53;87.08;100027.88;5032849;28;20208;-67
2021/05/12 05:34:20;;;;;;;17.07;12.03;;;;;;;11.55;86.68;100033.13;5032306;28;20197;-67
2021/05/12 05:36:45;;;;;;;17.70;12.67;;;;;;;11.48;86.35;100035.34;5034214;28;20184;-68
2021/05/12 05:39:10;;;;;;;20.70;14.97;;;;;;;11.43;87.29;100034.81;5034001;28;20749;-69
2021/05/12 05:41:36;;;;;;;16.10;12.57;;;;;;;11.46;87.05;100031.91;5032253;28;20218;-68
2021/05/12 05:44:02;;;;;;;17.73;13.33;;;;;;;11.42;87.40;100034.91;5033812;28;20173;-65
2021/05/12 05:46:27;;;;;;;19.67;12.60;;;;;;;11.50;87.07;100035.22;5034011;28;20180;-70
2021/05/12 05:48:52;;;;;;;18.40;13.10;;;;;;;11.39;87.51;100041.31;5032669;28;20196;-75
2021/05/12 05:51:18;;;;;;;15.33;11.73;;;;;;;11.46;87.27;100050.63;5032609;28;20544;-74
2021/05/12 05:53:43;;;;;;;16.77;12.47;;;;;;;11.47;86.87;100046.97;5032577;28;20216;-74
2021/05/12 05:56:08;;;;;;;14.17;11.67;;;;;;;11.51;86.87;100044.94;5033401;28;20173;-74
2021/05/12 05:58:34;;;;;;;14.03;11.57;;;;;;;11.49;86.73;100045.06;5015707;28;20286;-74
2021/05/12 06:00:59;;;;;;;15.57;11.57;;;;;;;11.55;86.02;100041.13;5033924;28;20184;-75
2021/05/12 06:03:24;;;;;;;20.37;13.73;;;;;;;11.62;85.64;100057.59;5034556;28;20172;-76
2021/05/12 06:05:49;;;;;;;13.90;11.00;;;;;;;11.62;85.44;100053.09;5032467;28;20203;-74
2021/05/12 06:08:15;;;;;;;16.50;11.07;;;;;;;11.72;85.16;100055.97;5032169;28;20196;-74
2021/05/12 06:10:40;;;;;;;16.93;12.43;;;;;;;11.78;85.57;100061.78;5031946;28;20643;-75
2021/05/12 06:13:05;;;;;;;19.27;12.43;;;;;;;11.79;85.02;100059.97;5033170;28;20282;-75
2021/05/12 06:15:31;;;;;;;14.50;11.57;;;;;;;11.78;85.49;100063.59;5034012;28;20180;-74
2021/05/12 06:17:56;;;;;;;20.70;12.77;;;;;;;11.83;84.99;100074.81;5033787;28;20243;-74
2021/05/12 06:20:21;;;;;;;16.67;13.00;;;;;;;11.73;85.10;100076.41;5034321;28;20176;-75
2021/05/12 06:22:47;;;;;;;20.00;15.50;;;;;;;11.73;85.75;100074.59;5033145;28;20556;-76
2021/05/12 06:25:13;;;;;;;19.73;13.37;;;;;;;11.60;86.44;100076.41;5034178;28;20176;-74
2021/05/12 06:27:39;;;;;;;14.40;11.87;;;;;;;11.61;86.43;100087.97;5016285;28;20703;-76
2021/05/12 06:30:05;;;;;;;23.93;17.67;;;;;;;11.57;86.34;100080.16;5035195;28;20172;-74
2021/05/12 06:32:30;;;;;;;16.63;12.93;;;;;;;11.56;86.83;100081.13;5033728;28;20260;-73
2021/05/12 06:34:56;;;;;;;15.67;12.13;;;;;;;11.52;86.65;100086.75;5015751;28;20292;-76
2021/05/12 06:37:21;;;;;;;17.60;14.10;;;;;;;11.51;86.93;100093.06;5032271;28;20181;-73
2021/05/12 06:39:47;;;;;;;21.13;12.67;;;;;;;11.48;87.05;100090.59;5032443;28;20191;-73
2021/05/12 06:42:12;;;;;;;15.87;12.30;;;;;;;11.54;86.72;100096.41;5032491;28;20168;-74
2021/05/12 06:44:37;;;;;;;22.80;14.93;;;;;;;11.59;87.02;100101.44;5032384;28;20174;-74
2021/05/12 06:47:03;;;;;;;22.57;15.40;;;;;;;11.66;85.54;100089.34;5033754;28;20178;-76
2021/05/12 06:49:28;;;;;;;16.40;11.37;;;;;;;11.65;85.50;100090.31;5033030;28;20199;-75
2021/05/12 06:51:56;;;;;;;22.90;16.17;;;;;;;11.75;85.52;100079.81;5033879;28;20184;-74
2021/05/12 06:54:21;;;;;;;16.80;12.43;;;;;;;11.71;85.13;100095.22;5037950;28;20196;-74
2021/05/12 06:56:47;;;;;;;17.30;13.40;;;;;;;11.82;84.76;100100.72;5040376;28;20253;-74
2021/05/12 06:59:12;;;;;;;16.90;11.77;;;;;;;11.81;84.77;100107.03;5038568;28;20204;-75
2021/05/12 07:01:37;;;;;;;19.33;12.37;;;;;;;11.81;84.70;100100.81;5023591;28;20191;-75
2021/05/12 07:04:03;;;;;;;18.73;12.03;;;;;;;11.93;84.63;100110.69;5040199;28;20212;-76
2021/05/12 07:06:28;;;;;;;15.40;10.53;;;;;;;12.02;83.58;100106.50;5048705;28;20179;-75
2021/05/12 07:08:54;;;;;;;17.13;11.53;;;;;;;12.00;84.08;100111.97;5035824;28;20200;-75
2021/05/12 07:11:21;;;;;;;13.43;10.93;;;;;;;11.95;84.54;100111.44;5037274;28;20192;-76
2021/05/12 07:13:46;;;;;;;17.63;10.77;;;;;;;11.95;84.59;100113.25;5035432;28;20216;-74
2021/05/12 07:16:11;;;;;;;16.57;12.13;;;;;;;12.01;84.10;100105.66;5037240;28;20210;-74
2021/05/12 07:18:37;;;;;;;14.80;9.70;;;;;;;12.08;84.04;100104.25;5038697;28;20200;-75
2021/05/12 07:21:02;;;;;;;12.30;9.50;;;;;;;12.07;82.96;100097.19;5040898;28;20180;-74
2021/05/12 07:23:28;;;;;;;23.67;14.67;;;;;;;12.11;83.98;100096.00;5039187;28;20185;-74
2021/05/12 07:25:56;;;;;;;16.77;11.40;;;;;;;12.17;83.71;100092.03;5037218;28;20617;-77
2021/05/12 07:28:21;;;;;;;13.57;9.30;;;;;;;12.26;83.20;100091.38;5020740;28;20552;-75
2021/05/12 07:30:47;;;;;;;16.17;8.57;;;;;;;12.30;82.98;100098.22;5037561;28;20183;-75
2021/05/12 07:33:13;;;;;;;14.57;11.00;;;;;;;12.36;82.46;100103.16;5037865;28;20211;-76
2021/05/12 07:35:38;;;;;;;11.50;9.13;;;;;;;12.46;81.66;100097.97;5036168;28;20667;-74
2021/05/12 07:38:03;;;;;;;12.87;9.67;;;;;;;12.29;82.35;100103.69;5036796;28;20394;-75
2021/05/12 07:40:31;;;;;;;13.27;10.03;;;;;;;12.40;83.42;100099.28;5035417;28;20188;-74
2021/05/12 07:43:07;;;;;;;10.77;8.90;;;;;;;12.56;81.57;100092.81;5019393;28;20191;-73
2021/05/12 07:45:32;;;;;;;11.67;8.03;;;;;;;12.66;82.13;100088.50;5036608;28;20644;-73
2021/05/12 07:47:58;;;;;;;10.73;8.07;;;;;;;12.71;82.06;100095.25;5035381;28;20188;-74
2021/05/12 07:50:23;;;;;;;12.27;8.93;;;;;;;12.75;81.71;100094.03;5035070;28;20234;-75
2021/05/12 07:52:49;;;;;;;11.27;7.97;;;;;;;12.78;81.36;100101.00;5017889;28;20176;-74
2021/05/12 07:55:14;;;;;;;15.80;11.67;;;;;;;12.82;81.21;100107.81;5036401;28;20177;-74
2021/05/12 07:57:40;;;;;;;15.00;10.53;;;;;;;12.95;79.89;100105.94;5036076;28;20589;-74
2021/05/12 08:00:08;;;;;;;18.77;10.77;;;;;;;12.84;80.36;100104.06;5017873;28;20238;-74
2021/05/12 08:02:33;;;;;;;12.93;9.57;;;;;;;12.84;81.03;100113.91;5035067;28;20629;-75
2021/05/12 08:04:59;;;;;;;14.50;9.60;;;;;;;12.81;81.30;100106.97;5035299;28;20176;-75
2021/05/12 08:07:24;;;;;;;16.73;10.97;;;;;;;12.76;81.50;100106.47;5034899;28;20208;-74
2021/05/12 08:09:49;;;;;;;13.70;9.63;;;;;;;12.70;82.13;100117.63;5035895;28;20180;-74
2021/05/12 08:12:14;;;;;;;12.97;9.57;;;;;;;12.74;82.30;100112.91;5034216;28;20223;-74
2021/05/12 08:14:40;;;;;;;12.30;9.37;;;;;;;13.01;80.96;100110.88;5017227;28;20290;-75
2021/05/12 08:17:05;;;;;;;11.60;8.77;;;;;;;13.07;80.24;100110.41;5034229;28;20262;-74
2021/05/12 08:19:30;;;;;;;11.47;8.40;;;;;;;13.06;79.60;100118.56;5033979;28;20200;-74
2021/05/12 08:21:56;;;;;;;12.93;8.70;;;;;;;13.15;79.67;100123.22;5017973;28;20778;-75
2021/05/12 08:24:21;;;;;;;9.83;7.87;;;;;;;13.13;79.77;100120.66;5036592;28;20174;-76
2021/05/12 08:26:46;;;;;;;17.13;11.13;;;;;;;13.50;78.02;100127.78;5036243;28;20240;-75
2021/05/12 08:29:14;;;;;;;14.00;8.63;;;;;;;13.52;78.30;100128.53;5035873;28;20192;-76
2021/05/12 08:31:40;;;;;;;13.13;9.03;;;;;;;13.91;76.78;100117.41;5034284;28;20175;-75
2021/05/12 08:34:06;;;;;;;14.23;8.10;;;;;;;14.07;76.04;100117.03;5017682;28;20196;-74
2021/05/12 08:36:33;;;;;;;12.43;7.80;;;;;;;14.21;75.16;100116.84;5035132;28;20260;-75
2021/05/12 08:38:58;;;;;;;13.93;8.80;;;;;;;14.16;74.91;100126.22;5033640;28;20208;-75
2021/05/12 08:41:23;;;;;;;12.37;8.20;;;;;;;14.19;75.06;100120.63;5035204;28;20238;-74
2021/05/12 08:43:50;;;;;;;15.03;8.97;;;;;;;14.23;75.33;100135.50;5033892;28;20168;-74
2021/05/12 08:46:18;;;;;;;14.83;9.33;;;;;;;14.01;74.88;100139.84;5033684;28;20556;-73
2021/05/12 08:48:44;;;;;;;11.60;7.30;;;;;;;13.79;75.96;100129.09;5035053;28;20188;-75
2021/05/12 08:51:10;;;;;;;12.73;8.60;;;;;;;13.76;76.50;100121.28;5033841;28;20222;-76
2021/05/12 08:53:35;;;;;;;13.30;8.10;;;;;;;13.75;77.13;100131.16;5034128;28;20196;-75
2021/05/12 08:56:02;;;;;;;11.90;7.53;;;;;;;13.71;77.01;100131.50;5035231;28;20659;-74
2021/05/12 08:58:28;;;;;;;10.17;7.57;;;;;;;13.74;76.80;100123.22;5035601;28;20287;-76
2021/05/12 09:00:54;;;;;;;13.17;7.87;;;;;;;13.59;76.86;100143.16;5017826;28;20172;-74
2021/05/12 09:03:19;;;;;;;10.90;6.97;;;;;;;13.63;77.07;100128.56;5036282;28;20562;-75
2021/05/12 09:05:45;;;;;;;10.27;6.50;;;;;;;13.59;78.03;100137.81;5034380;28;20622;-75
2021/05/12 09:08:10;;;;;;;13.03;7.60;;;;;;;13.67;77.08;100132.69;5034093;28;20203;-75
2021/05/12 09:10:36;;;;;;;10.87;7.17;;;;;;;13.56;77.38;100130.00;5035886;28;20172;-73
2021/05/12 09:13:01;;;;;;;10.10;7.27;;;;;;;13.42;77.74;100139.94;5033640;28;20197;-75
2021/05/12 09:15:28;;;;;;;11.83;7.57;;;;;;;13.36;78.08;100156.47;5033580;28;20214;-74
2021/05/12 09:17:55;;;;;;;13.13;7.80;;;;;;;13.39;77.96;100147.38;5035038;28;20188;-75
2021/05/12 09:20:21;;;;;;;13.07;7.80;;;;;;;13.42;78.42;100145.31;5035045;28;20183;-75
2021/05/12 09:23:15;;;;;;;13.33;8.83;;;;;;;13.24;78.58;100137.78;5033649;28;20173;-74
2021/05/12 09:25:52;;;;;;;13.43;8.67;;;;;;;13.35;78.32;100130.63;5035091;28;20171;-75
2021/05/12 09:28:19;;;;;;;13.80;7.80;;;;;;;13.34;78.05;100128.94;5034117;28;20192;-74
2021/05/12 09:30:47;;;;;;;11.13;7.27;;;;;;;13.21;79.20;100128.16;5033154;28;20264;-74
2021/05/12 09:33:30;;;;;;;14.23;8.37;;;;;;;13.39;78.45;100150.91;5017171;28;20200;-75
2021/05/12 09:35:56;;;;;;;9.67;7.57;;;;;;;13.45;77.84;100150.44;5035549;28;20206;-76
2021/05/12 09:38:23;;;;;;;11.10;7.77;;;;;;;13.49;77.74;100148.38;5056447;22;20216;-75
2021/05/12 09:41:00;;;;;;;11.67;7.90;;;;;;;13.58;77.26;100141.47;5017948;28;20321;-74
2021/05/12 09:43:27;;;;;;;12.03;6.97;;;;;;;13.84;76.54;100151.06;5037575;28;20168;-75
2021/05/12 09:45:52;;;;;;;9.37;6.83;;;;;;;14.13;75.84;100138.06;5041840;28;20171;-75
2021/05/12 09:48:18;;;;;;;10.07;6.83;;;;;;;13.88;74.45;100152.53;5042583;28;20200;-75
2021/05/12 09:50:43;;;;;;;10.20;6.20;;;;;;;13.99;75.05;100151.69;5041894;28;20191;-74
2021/05/12 09:53:13;;;;;;;9.30;6.37;;;;;;;14.26;75.04;100156.72;5039166;28;20341;-74
2021/05/12 09:55:44;;;;;;;9.40;6.23;;;;;;;14.36;73.94;100161.25;5036738;28;20164;-73
2021/05/12 09:58:21;;;;;;;7.63;6.27;;;;;;;14.45;73.18;100165.03;5039481;28;20200;-72
2021/05/12 10:00:48;;;;;;;10.03;6.70;;;;;;;14.50;73.93;100146.78;5035845;28;20156;-74
2021/05/12 10:03:14;;;;;;;10.57;6.33;;;;;;;14.50;72.89;100162.88;5035303;28;20200;-75
2021/05/12 10:05:52;;;;;;;8.97;6.90;;;;;;;14.44;73.61;100155.28;5037536;28;20215;-74
2021/05/12 10:08:33;;;;;;;10.67;7.07;;;;;;;14.24;74.64;100166.72;5037899;28;20587;-74
2021/05/12 10:11:10;;;;;;;10.27;6.93;;;;;;;14.33;74.99;100177.59;5039446;28;20643;-74
2021/05/12 10:13:36;;;;;;;11.60;8.03;;;;;;;14.36;74.76;100173.81;5038406;28;20226;-75
2021/05/12 10:16:05;;;;;;;13.50;8.50;;;;;;;14.33;75.11;100174.06;5039612;28;20192;-74
2021/05/12 10:18:30;;;;;;;13.03;8.63;;;;;;;14.11;75.74;100172.19;5034196;28;20192;-73
2021/05/12 10:21:00;;;;;;;13.77;8.77;;;;;;;14.20;75.69;100179.53;5033559;28;20176;-73
2021/05/12 10:23:26;;;;;;;10.30;7.33;;;;;;;14.13;75.45;100178.31;5032262;28;20266;-74
2021/05/12 10:25:52;;;;;;;12.30;8.17;;;;;;;13.98;76.41;100190.22;5016832;28;20279;-75
2021/05/12 10:28:17;;;;;;;12.97;7.97;;;;;;;14.14;76.40;100182.72;5033348;28;20203;-75
2021/05/12 10:30:43;;;;;;;12.57;7.90;;;;;;;13.90;76.27;100185.44;5035267;28;20259;-74
2021/05/12 10:33:12;;;;;;;12.10;8.93;;;;;;;13.84;77.08;100185.91;5033283;28;20298;-74
2021/05/12 10:35:42;;;;;;;12.60;8.17;;;;;;;13.70;77.23;100178.91;5033620;28;20172;-75
2021/05/12 10:38:28;;;;;;;13.43;8.97;;;;;;;13.80;77.47;100173.72;5033848;28;20192;-75
2021/05/12 10:40:53;;;;;;;14.80;9.20;;;;;;;13.85;77.86;100170.69;5018131;28;20180;-74
2021/05/12 10:43:28;;;;;;;11.33;8.03;;;;;;;14.05;77.13;100173.50;5039077;28;20172;-75
2021/05/12 10:48:50;;;;;;;12.17;7.93;;;;;;;13.93;77.61;100179.84;5037490;28;20749;-75
2021/05/12 10:51:22;;;;;;;11.73;8.07;;;;;;;14.25;76.39;100179.16;5036949;28;20206;-75
2021/05/12 10:53:53;;;;;;;13.13;9.20;;;;;;;13.38;79.45;100180.47;5036398;28;20200;-74
2021/05/12 10:56:20;;;;;;;11.97;8.50;;;;;;;13.90;77.95;100179.22;5038588;28;20192;-76
2021/05/12 10:58:56;;;;;;;12.70;8.27;;;;;;;14.19;76.72;100169.78;5037393;28;20231;-75
2021/05/12 11:01:22;;;;;;;13.20;9.03;;;;;;;14.06;76.89;100180.59;5039809;28;20160;-74
2021/05/12 11:03:50;;;;;;;13.80;8.43;;;;;;;14.40;75.74;100180.63;5036471;28;20177;-74
2021/05/12 11:06:23;;;;;;;12.83;8.67;;;;;;;14.16;77.04;100172.69;5037435;28;20169;-73
2021/05/12 11:09:12;;;;;;;13.43;8.60;;;;;;;14.33;75.90;100180.28;5036108;28;20725;-74
2021/05/12 11:11:43;;;;;;;13.67;9.37;;;;;;;14.41;75.38;100182.34;5037057;28;20510;-73
2021/05/12 11:14:18;;;;;;;12.07;8.53;;;;;;;14.02;76.96;100186.31;5037488;28;20278;-74